Soaring Guidance
Issued by NWS Reno, NV

Home | Current Version | Previous Version | Text Only | Print | Product List | Glossary On
Versions: 1 2 3 4 5 6 7 8 9
000
UXUS97 KREV 251346
SRGREV

SOARING FORECAST
NATIONAL WEATHER SERVICE - RENO NV
700 AM PDT THU MAY 25 2017

THIS SOARING FORECAST IS FOR THE EASTERN SIERRA AND WESTERN NEVADA
WITH SPECIFIC INDICES FOR THE GREATER RENO AREA.

THIS FORECAST IS PREPARED DAILY BY 700 AM AND IS NOT UPDATED.

FOR CURRENT FLIGHT CONDITIONS...FORECASTS...AND ADVISORIES...ACCESS
YOUR LOCAL BRIEFING OUTLET OR FLIGHT SERVICE STATION.

*******************************************************************
FORECASTED LOCAL INDICES FOR RENO:        TODAY     YESTERDAY
FORECASTED MAX TEMP AT RENO (DEG F).....     80          85
FORECASTED TRIGGER TEMPERATURE (DEG F)..     64          74
   EXCEEDED YESTERDAY BY 955 AM PDT
FORECASTED MAXIMUM ALTITUDE (FT MSL)....  16800       15900
FORECASTED SOARING INDEX (FPM)..........   1014        1047
FORECASTED K-INDEX.........VALID 18Z....     16          17
FORECASTED K-INDEX.........VALID 00Z....     24           3
FORECASTED LIFTED INDEX....VALID 18Z....      6          17
FORECASTED LIFTED INDEX....VALID 00Z....      3           2

AFTERNOON WINDS ALOFT FORECAST
MSL (FT) WIND/TEMP
9000  2714/+08
10000 2613/+06
12000 2612/+02
14000 2715/-03
16000 2819/-08
18000 2930/-13
24000 2936/-26
30000 3041/-42
34000 3039/-52
39000 2834/-59

SLIDE MOUNTAIN DATA:
     DATE       TIME     TEMP  DEWPT   RH         WIND (MPH)
                        (F)   (F)           | DIR  SPEED GUST
2017-05-25    05:20      37    18     31    | 146   29   39
2017-05-25    05:00      38    17     30    | 151   31   41
2017-05-25    04:50      38    16     28    | 153   36   47
2017-05-25    04:30      38    16     27    | 148   37   47

RENO TAF FORECAST:
KRNO 251120Z 2512/2612 VRB04KT P6SM SKC
     FM251900 28015G25KT P6SM SCT080
     FM260600 31007KT P6SM SKC

CARSON CITY TAF FORECAST:
KCXP 251120Z 2512/2612 VRB04KT P6SM SKC
     FM251900 25014G24KT P6SM FEW070
     FM260400 30006KT P6SM FEW070

OUTLOOK FOR THE RENO-CARSON CITY-MINDEN AREA:
.FRIDAY...SUNNY IN THE MORNING THEN BECOMING PARTLY CLOUDY. HIGHS
74 TO 79. LIGHT WINDS BECOMING NORTH AROUND 10 MPH IN THE
AFTERNOON.

SUNRISE AND SUNSET
MAY 25 2017...........SUNRISE   537 AM PDT   SUNSET   815 PM PDT
MAY 26 2017...........SUNRISE   537 AM PDT   SUNSET   816 PM PDT



USA.gov is the U.S. government's official web portal to all federal, state and local government web resources and services.